Time;durP1;ratioP1;P1;durP2;ratioP2;P2;SDS_P1;SDS_P2;PMS_P1;PMS_P2;Temp;Humidity;BMP_temperature;BMP_pressure;BME280_temperature;BME280_humidity;BME280_pressure;Samples;Min_cycle;Max_cycle;Signal;HPM_P1;HPM_P2
2023/06/19 00:00:15;;;;;;;12.23;7.60;;;;;;;18.75;100.00;100759.53;7386016;19;20411;-37
2023/06/19 00:02:45;;;;;;;10.90;7.27;;;;;;;18.73;100.00;100758.63;7396765;19;20400;-37
2023/06/19 00:05:15;;;;;;;12.43;6.90;;;;;;;18.67;100.00;100762.94;7373539;19;20808;-35
2023/06/19 00:07:47;;;;;;;9.50;6.30;;;;;;;18.63;100.00;100764.66;7395995;19;20411;-38
2023/06/19 00:10:17;;;;;;;50.93;28.03;;;;;;;18.67;100.00;100803.00;7374089;19;20423;-39
2023/06/19 00:12:49;;;;;;;64.67;34.27;;;;;;;18.76;100.00;100808.31;7395514;19;20418;-38
2023/06/19 00:15:19;;;;;;;52.67;30.37;;;;;;;18.81;100.00;100807.50;7371127;19;20419;-39
2023/06/19 00:17:49;;;;;;;39.00;23.10;;;;;;;18.79;100.00;100797.03;7395042;19;20479;-37
2023/06/19 00:20:18;;;;;;;29.13;16.40;;;;;;;18.81;100.00;100795.28;7373830;19;20779;-38
2023/06/19 00:22:51;;;;;;;19.57;13.10;;;;;;;18.74;100.00;100783.94;7394528;19;20853;-38
2023/06/19 00:25:21;;;;;;;14.30;9.70;;;;;;;18.65;100.00;100781.22;7373336;19;20407;-43
2023/06/19 00:27:53;;;;;;;27.40;16.20;;;;;;;18.72;100.00;100777.78;7394947;19;20470;-36
2023/06/19 00:30:23;;;;;;;19.20;12.27;;;;;;;18.69;100.00;100779.50;7373124;19;21001;-35
2023/06/19 00:32:53;;;;;;;17.47;10.70;;;;;;;18.62;100.00;100775.97;7394925;19;20443;-36
2023/06/19 00:35:23;;;;;;;12.50;8.50;;;;;;;18.52;100.00;100776.75;7374142;19;20435;-37
2023/06/19 00:37:52;;;;;;;13.77;7.90;;;;;;;18.44;100.00;100780.16;7394726;19;20407;-36
2023/06/19 00:40:29;;;;;;;17.87;10.97;;;;;;;18.53;100.00;100773.28;7372860;19;20423;-36
2023/06/19 00:43:01;;;;;;;12.03;7.50;;;;;;;18.47;100.00;100766.28;7397326;19;21017;-35
2023/06/19 00:45:31;;;;;;;11.47;7.87;;;;;;;18.35;100.00;100760.06;7370261;19;20455;-37
2023/06/19 00:48:02;;;;;;;23.33;7.90;;;;;;;18.31;100.00;100757.41;7397662;19;20406;-43
2023/06/19 00:50:32;;;;;;;15.27;9.20;;;;;;;18.32;100.00;100774.81;7374617;19;20452;-36
2023/06/19 00:53:03;;;;;;;11.13;8.00;;;;;;;18.22;100.00;100772.09;7395504;19;20404;-37
2023/06/19 00:55:33;;;;;;;11.80;7.87;;;;;;;18.30;100.00;100766.13;7374291;19;20416;-39
2023/06/19 00:58:05;;;;;;;11.23;7.87;;;;;;;18.27;100.00;100766.97;7395860;19;20415;-38
2023/06/19 01:00:35;;;;;;;9.90;7.17;;;;;;;18.18;100.00;100764.22;7373232;19;20412;-34
2023/06/19 01:03:05;;;;;;;16.30;7.70;;;;;;;18.16;100.00;100763.34;7395331;19;20416;-39
2023/06/19 01:05:35;;;;;;;11.37;7.57;;;;;;;18.13;100.00;100753.75;7371526;19;20951;-32
2023/06/19 01:08:09;;;;;;;14.23;6.90;;;;;;;18.18;100.00;100753.78;7394314;19;20503;-36
2023/06/19 01:10:41;;;;;;;11.17;7.73;;;;;;;18.19;100.00;100738.16;7371935;19;20402;-38
2023/06/19 01:13:20;;;;;;;9.10;6.70;;;;;;;18.20;100.00;100729.44;7395895;19;20798;-40
2023/06/19 01:15:50;;;;;;;8.67;6.37;;;;;;;18.25;100.00;100721.66;7369646;19;20451;-39
2023/06/19 01:18:23;;;;;;;12.83;7.67;;;;;;;18.26;100.00;100717.31;7395381;19;20400;-36
2023/06/19 01:20:52;;;;;;;11.83;6.47;;;;;;;18.22;100.00;100712.06;7370767;19;20433;-37
2023/06/19 01:23:25;;;;;;;9.90;7.00;;;;;;;18.25;100.00;100702.53;7394843;19;20407;-37
2023/06/19 01:25:54;;;;;;;13.70;7.77;;;;;;;18.27;100.00;100698.19;7369252;19;20463;-39
2023/06/19 01:28:26;;;;;;;11.77;8.07;;;;;;;18.27;100.00;100685.13;7394672;19;20507;-36
2023/06/19 01:30:57;;;;;;;12.47;7.60;;;;;;;18.17;100.00;100673.72;7372486;19;20973;-43
2023/06/19 01:33:29;;;;;;;11.20;7.47;;;;;;;18.17;100.00;100677.22;7395503;19;20414;-36
2023/06/19 01:36:01;;;;;;;9.70;7.20;;;;;;;18.12;100.00;100675.41;7370213;19;20522;-38
2023/06/19 01:38:33;;;;;;;11.50;7.27;;;;;;;18.11;100.00;100674.56;7394614;19;20419;-39
2023/06/19 01:41:03;;;;;;;13.23;7.17;;;;;;;18.11;100.00;100666.72;7370515;19;20435;-34
2023/06/19 01:43:33;;;;;;;9.17;6.83;;;;;;;18.05;100.00;100670.13;7397685;19;20435;-35
2023/06/19 01:46:03;;;;;;;11.93;7.67;;;;;;;18.07;100.00;100668.44;7368998;19;20466;-38
2023/06/19 01:48:33;;;;;;;10.10;7.17;;;;;;;18.02;100.00;100672.69;7396539;19;20432;-35
2023/06/19 01:51:03;;;;;;;11.07;7.40;;;;;;;18.01;100.00;100664.84;7369986;19;20483;-36
2023/06/19 01:53:36;;;;;;;10.10;7.60;;;;;;;17.93;100.00;100656.94;7394303;19;20410;-42
2023/06/19 01:56:06;;;;;;;11.43;7.77;;;;;;;17.90;100.00;100663.00;7368548;19;20462;-40
2023/06/19 01:58:36;;;;;;;11.40;7.80;;;;;;;17.87;100.00;100656.88;7396353;19;20564;-37
2023/06/19 02:01:05;;;;;;;10.63;7.63;;;;;;;17.85;100.00;100656.88;7368255;19;20435;-35
2023/06/19 02:03:35;;;;;;;10.23;7.00;;;;;;;17.89;100.00;100650.81;7394930;19;20423;-34
2023/06/19 02:06:05;;;;;;;11.47;7.27;;;;;;;17.93;100.00;100652.59;7368644;19;20922;-34
2023/06/19 02:08:37;;;;;;;11.53;7.27;;;;;;;17.95;100.00;100653.47;7394210;19;20407;-37
2023/06/19 02:11:08;;;;;;;10.40;7.57;;;;;;;18.01;100.00;100654.41;7369426;19;20428;-37
2023/06/19 02:13:37;;;;;;;11.00;7.57;;;;;;;18.07;100.00;100641.44;7394773;19;20415;-42
2023/06/19 02:16:08;;;;;;;9.23;6.70;;;;;;;18.18;100.00;100637.19;7368801;19;20451;-37
2023/06/19 02:18:38;;;;;;;9.53;6.87;;;;;;;18.18;100.00;100631.09;7394150;19;20407;-37
2023/06/19 02:21:08;;;;;;;10.73;8.20;;;;;;;18.25;100.00;100618.97;7370380;19;20431;-35
2023/06/19 02:23:40;;;;;;;13.00;6.73;;;;;;;18.31;100.00;100616.41;7395449;19;20950;-41
2023/06/19 02:26:10;;;;;;;9.30;7.10;;;;;;;18.29;100.00;100607.66;7367123;19;20483;-43
2023/06/19 02:28:39;;;;;;;9.17;6.37;;;;;;;18.36;100.00;100604.25;7393475;19;20412;-40
2023/06/19 02:31:09;;;;;;;11.93;7.30;;;;;;;18.35;100.00;100602.47;7367163;19;20419;-34
2023/06/19 02:33:39;;;;;;;14.67;9.40;;;;;;;18.38;100.00;100594.69;7395277;19;20449;-34
2023/06/19 02:36:09;;;;;;;9.13;7.07;;;;;;;18.47;100.00;100597.34;7367936;19;20530;-40
2023/06/19 02:38:42;;;;;;;9.80;6.90;;;;;;;18.44;100.00;100588.63;7393492;19;20490;-42
2023/06/19 02:41:12;;;;;;;12.30;7.87;;;;;;;18.49;100.00;100585.19;7370458;19;20436;-38
2023/06/19 02:43:42;;;;;;;12.20;7.80;;;;;;;18.48;100.00;100578.22;7395135;19;20403;-36
2023/06/19 02:46:11;;;;;;;15.97;7.70;;;;;;;18.48;100.00;100572.13;7362985;19;21005;-42
2023/06/19 02:48:41;;;;;;;13.90;8.67;;;;;;;18.46;100.00;100574.72;7393313;19;20771;-34
2023/06/19 02:51:11;;;;;;;8.90;6.83;;;;;;;18.51;100.00;100566.03;7368285;19;20774;-36
2023/06/19 02:53:44;;;;;;;11.70;7.80;;;;;;;18.55;100.00;100553.00;7392939;19;20490;-43
2023/06/19 02:56:14;;;;;;;10.50;7.57;;;;;;;18.54;100.00;100548.63;7367475;19;20446;-37
2023/06/19 02:58:43;;;;;;;10.07;7.43;;;;;;;18.48;100.00;100539.03;7392957;19;21019;-36
2023/06/19 03:01:13;;;;;;;11.67;7.53;;;;;;;18.50;100.00;100536.41;7368480;19;20415;-43
2023/06/19 03:03:46;;;;;;;9.73;7.30;;;;;;;18.55;100.00;100537.31;7390890;19;20408;-37
2023/06/19 03:06:17;;;;;;;12.93;8.30;;;;;;;18.57;100.00;100522.53;7366809;19;20533;-36
2023/06/19 03:08:50;;;;;;;10.67;7.83;;;;;;;18.58;100.00;100520.78;7391948;19;20412;-40
2023/06/19 03:11:19;;;;;;;12.90;7.90;;;;;;;18.52;100.00;100516.44;7368377;19;20433;-39
2023/06/19 03:13:50;;;;;;;9.07;6.20;;;;;;;18.55;100.00;100520.78;7391086;19;20407;-35
2023/06/19 03:16:20;;;;;;;10.00;7.03;;;;;;;18.49;100.00;100517.28;7367427;19;20466;-39
2023/06/19 03:18:50;;;;;;;41.90;24.57;;;;;;;18.42;100.00;100505.06;7391057;19;20774;-39
2023/06/19 03:21:21;;;;;;;56.17;32.63;;;;;;;18.51;100.00;100508.56;7370656;19;20423;-33
2023/06/19 03:23:54;;;;;;;24.67;15.97;;;;;;;18.47;100.00;100503.31;7391557;19;20778;-39
2023/06/19 03:26:24;;;;;;;12.07;8.33;;;;;;;18.41;100.00;100492.84;7364113;19;20447;-43
2023/06/19 03:28:54;;;;;;;13.00;9.43;;;;;;;18.43;100.00;100496.34;7391810;19;20480;-38
2023/06/19 03:31:23;;;;;;;13.93;9.20;;;;;;;18.34;100.00;100485.84;7367085;19;20523;-42
2023/06/19 03:33:53;;;;;;;10.57;7.77;;;;;;;18.31;100.00;100488.44;7390689;19;20415;-37
2023/06/19 03:36:23;;;;;;;13.57;8.60;;;;;;;18.30;100.00;100495.41;7365204;19;20463;-38
2023/06/19 03:38:56;;;;;;;12.00;8.80;;;;;;;18.34;100.00;100491.06;7391450;19;20755;-38
2023/06/19 03:41:26;;;;;;;13.20;9.60;;;;;;;18.43;100.00;100483.28;7373623;19;20423;-39
2023/06/19 03:43:55;;;;;;;13.67;7.90;;;;;;;18.41;100.00;100468.47;7397219;19;20403;-34
2023/06/19 03:46:25;;;;;;;14.70;9.20;;;;;;;18.49;100.00;100459.81;7373046;19;20467;-34
2023/06/19 03:48:54;;;;;;;11.73;7.80;;;;;;;18.52;100.00;100448.50;7400178;19;20406;-35
2023/06/19 03:51:24;;;;;;;11.57;7.90;;;;;;;18.48;100.00;100442.41;7373194;19;20458;-38
2023/06/19 03:53:56;;;;;;;13.17;8.80;;;;;;;18.60;100.00;100433.72;7399928;19;20408;-36
2023/06/19 03:56:26;;;;;;;14.93;9.07;;;;;;;18.49;100.00;100428.47;7373364;19;20466;-37
2023/06/19 03:58:56;;;;;;;12.20;8.03;;;;;;;18.54;100.00;100428.47;7396852;19;20411;-36
2023/06/19 04:01:26;;;;;;;11.77;8.00;;;;;;;18.51;100.00;100420.63;7373568;19;20998;-39
2023/06/19 04:03:55;;;;;;;13.07;8.50;;;;;;;18.55;100.00;100417.16;7396940;19;20415;-37
2023/06/19 04:06:25;;;;;;;12.00;7.30;;;;;;;18.49;100.00;100419.75;7371548;19;20467;-36
2023/06/19 04:08:57;;;;;;;12.30;8.50;;;;;;;18.48;100.00;100418.00;7396489;19;20415;-34
2023/06/19 04:11:27;;;;;;;13.10;9.20;;;;;;;18.48;100.00;100403.22;7374013;19;20434;-40
2023/06/19 04:13:56;;;;;;;10.80;7.70;;;;;;;18.55;100.00;100395.41;7396918;19;20765;-39
2023/06/19 04:16:26;;;;;;;10.97;7.50;;;;;;;18.59;100.00;100384.09;7371970;19;20476;-39
2023/06/19 04:18:56;;;;;;;12.10;8.13;;;;;;;18.69;100.00;100378.03;7396798;19;20404;-38
2023/06/19 04:21:25;;;;;;;13.80;8.90;;;;;;;18.67;100.00;100369.28;7373701;19;20411;-36
2023/06/19 04:23:58;;;;;;;13.93;8.67;;;;;;;18.65;100.00;100372.78;7396789;19;20411;-37
2023/06/19 04:26:27;;;;;;;14.07;9.10;;;;;;;18.49;100.00;100377.97;7371270;19;20455;-34
2023/06/19 04:28:57;;;;;;;48.23;25.40;;;;;;;18.48;100.00;100387.56;7396801;19;20475;-35
2023/06/19 04:31:28;;;;;;;15.80;9.40;;;;;;;18.52;100.00;100369.25;7372879;19;20516;-37
2023/06/19 04:33:57;;;;;;;18.97;11.67;;;;;;;18.60;100.00;100362.31;7395035;19;20470;-37
2023/06/19 04:36:27;;;;;;;21.87;13.60;;;;;;;18.64;100.00;100356.22;7372092;19;20462;-40
2023/06/19 04:39:00;;;;;;;11.27;8.20;;;;;;;18.60;100.00;100349.25;7396348;19;20505;-35
2023/06/19 04:41:30;;;;;;;19.83;13.10;;;;;;;18.60;100.00;100357.97;7373103;19;20444;-39
2023/06/19 04:44:00;;;;;;;14.47;9.40;;;;;;;18.59;100.00;100355.34;7395376;19;20416;-37
2023/06/19 04:46:29;;;;;;;22.00;14.00;;;;;;;18.58;100.00;100361.44;7370777;19;20466;-36
2023/06/19 04:48:59;;;;;;;17.77;11.67;;;;;;;18.64;100.00;100358.84;7396626;19;20412;-39
2023/06/19 04:51:29;;;;;;;15.20;9.90;;;;;;;18.79;100.00;100351.91;7372084;19;20435;-42
2023/06/19 04:54:01;;;;;;;12.60;8.83;;;;;;;18.76;100.00;100343.19;7397057;19;20414;-39
2023/06/19 04:56:32;;;;;;;15.77;9.40;;;;;;;18.69;100.00;100351.91;7371834;19;20542;-41
2023/06/19 04:59:02;;;;;;;15.73;9.70;;;;;;;18.70;100.00;100343.19;7396346;19;20415;-38
2023/06/19 05:01:32;;;;;;;15.07;10.53;;;;;;;18.67;100.00;100342.31;7372265;19;20431;-38
2023/06/19 05:04:01;;;;;;;13.00;9.13;;;;;;;18.71;100.00;100337.09;7396643;19;20403;-39
2023/06/19 05:06:32;;;;;;;12.97;9.70;;;;;;;18.67;100.00;100337.09;7371491;19;20474;-41
2023/06/19 05:09:04;;;;;;;11.90;8.90;;;;;;;18.71;100.00;100334.47;7396056;19;20467;-36
2023/06/19 05:11:34;;;;;;;12.60;9.63;;;;;;;18.71;100.00;100337.09;7371908;19;20428;-38
2023/06/19 05:14:04;;;;;;;14.00;9.10;;;;;;;18.60;100.00;100330.97;7398477;19;20415;-36
2023/06/19 05:16:33;;;;;;;12.00;8.60;;;;;;;18.56;100.00;100321.41;7371721;19;20484;-35
2023/06/19 05:19:05;;;;;;;11.00;8.47;;;;;;;18.54;100.00;100321.38;7395397;19;20404;-38
2023/06/19 05:21:35;;;;;;;14.10;9.37;;;;;;;18.58;100.00;100327.47;7371430;19;20423;-37
2023/06/19 05:24:07;;;;;;;13.00;9.70;;;;;;;18.57;100.00;100328.34;7395033;19;20415;-39
2023/06/19 05:26:37;;;;;;;19.90;12.87;;;;;;;18.54;100.00;100320.50;7370856;19;20463;-35
2023/06/19 05:29:08;;;;;;;13.00;9.60;;;;;;;18.54;100.00;100325.72;7394898;19;20490;-40
2023/06/19 05:31:38;;;;;;;21.10;14.60;;;;;;;18.60;100.00;100320.50;7371572;19;21234;-34
2023/06/19 05:34:07;;;;;;;18.83;11.00;;;;;;;18.74;100.00;100312.69;7394717;19;20428;-40
2023/06/19 05:36:37;;;;;;;15.40;10.73;;;;;;;18.69;100.00;100307.47;7368402;19;20451;-35
2023/06/19 05:39:10;;;;;;;15.60;9.70;;;;;;;18.65;100.00;100316.16;7394855;19;20493;-43
2023/06/19 05:41:39;;;;;;;13.97;9.97;;;;;;;18.65;100.00;100318.78;7369110;19;20455;-36
2023/06/19 05:44:09;;;;;;;14.87;10.60;;;;;;;18.65;100.00;100320.53;7395505;19;20970;-38
2023/06/19 05:46:39;;;;;;;21.27;11.30;;;;;;;18.63;100.00;100325.75;7369149;19;21002;-39
2023/06/19 05:49:08;;;;;;;16.73;10.50;;;;;;;18.66;100.00;100325.75;7393593;19;20416;-35
2023/06/19 05:51:38;;;;;;;13.40;9.20;;;;;;;18.59;100.00;100329.22;7370241;19;20437;-36
2023/06/19 05:54:10;;;;;;;15.73;9.00;;;;;;;18.54;100.00;100331.84;7394173;19;20769;-36
2023/06/19 05:56:40;;;;;;;13.50;9.27;;;;;;;18.60;100.00;100334.47;7370009;19;20475;-39
2023/06/19 05:59:09;;;;;;;13.03;9.77;;;;;;;18.63;100.00;100326.59;7396601;19;20406;-37
2023/06/19 06:01:40;;;;;;;12.47;9.27;;;;;;;18.62;100.00;100337.09;7369337;19;20978;-42
2023/06/19 06:04:09;;;;;;;13.80;9.20;;;;;;;18.71;100.00;100338.84;7390895;19;20414;-38
2023/06/19 06:06:39;;;;;;;13.53;8.90;;;;;;;18.76;100.00;100339.69;7368844;19;20490;-37
2023/06/19 06:09:13;;;;;;;12.17;9.33;;;;;;;18.70;100.00;100348.41;7394573;19;20404;-37
2023/06/19 06:11:42;;;;;;;14.80;9.83;;;;;;;18.65;100.00;100355.34;7369949;19;20478;-43
2023/06/19 06:14:12;;;;;;;16.37;10.50;;;;;;;18.77;100.00;100359.75;7393051;19;20395;-36
2023/06/19 06:16:42;;;;;;;13.70;11.10;;;;;;;18.83;100.00;100356.25;7369595;19;20494;-40
2023/06/19 06:19:11;;;;;;;15.43;10.47;;;;;;;18.89;100.00;100361.50;7393867;19;20970;-37
2023/06/19 06:21:41;;;;;;;15.07;10.50;;;;;;;18.75;100.00;100364.09;7371023;19;20442;-35
2023/06/19 06:24:13;;;;;;;18.03;11.00;;;;;;;18.66;100.00;100378.00;7392635;19;20491;-34
2023/06/19 06:26:43;;;;;;;13.10;10.43;;;;;;;18.59;100.00;100397.16;7368812;19;21047;-36
2023/06/19 06:29:12;;;;;;;29.07;18.77;;;;;;;18.68;100.00;100411.97;7395872;19;20432;-35
2023/06/19 06:31:42;;;;;;;18.93;12.03;;;;;;;18.76;100.00;100403.28;7369034;19;20447;-34
2023/06/19 06:34:12;;;;;;;18.83;12.03;;;;;;;18.64;100.00;100413.72;7392446;19;20424;-39
2023/06/19 06:36:42;;;;;;;16.60;11.60;;;;;;;18.56;100.00;100418.03;7368800;19;20911;-36
2023/06/19 06:39:27;;;;;;;15.37;10.60;;;;;;;18.50;100.00;100413.66;7393282;19;20423;-36
2023/06/19 06:41:57;;;;;;;22.23;15.00;;;;;;;18.56;100.00;100408.44;7363956;19;20460;-38
2023/06/19 06:44:27;;;;;;;15.50;11.30;;;;;;;18.57;100.00;100419.78;7390731;19;20938;-37
2023/06/19 06:46:56;;;;;;;18.80;12.50;;;;;;;18.35;100.00;100430.13;7367343;19;20531;-34
2023/06/19 06:49:26;;;;;;;22.40;15.23;;;;;;;18.21;100.00;100443.16;7392657;19;20403;-37
2023/06/19 06:51:56;;;;;;;17.63;11.43;;;;;;;18.21;100.00;100451.84;7368033;19;20439;-36
2023/06/19 06:54:29;;;;;;;18.43;12.03;;;;;;;18.51;100.00;100451.09;7392541;19;20403;-37
2023/06/19 06:56:59;;;;;;;17.47;11.50;;;;;;;18.64;100.00;100455.50;7366713;19;20451;-36
2023/06/19 06:59:29;;;;;;;13.67;9.47;;;;;;;18.57;100.00;100438.06;7392501;19;20412;-39
2023/06/19 07:01:59;;;;;;;16.00;10.80;;;;;;;18.58;100.00;100447.66;7366183;19;20523;-37
2023/06/19 07:04:29;;;;;;;14.10;11.17;;;;;;;18.72;100.00;100435.50;7393520;19;20470;-34
2023/06/19 07:06:58;;;;;;;19.17;13.70;;;;;;;18.71;100.00;100407.63;7365857;19;20891;-37
2023/06/19 07:09:31;;;;;;;14.87;10.93;;;;;;;18.59;100.00;100418.94;7393073;19;20425;-37
2023/06/19 07:12:01;;;;;;;14.90;11.37;;;;;;;18.55;100.00;100427.59;7361118;19;20529;-39
2023/06/19 07:14:31;;;;;;;16.70;11.97;;;;;;;18.71;100.00;100418.06;7392018;19;20409;-38
2023/06/19 07:17:01;;;;;;;14.27;10.87;;;;;;;18.80;100.00;100400.66;7370292;19;20476;-37
2023/06/19 07:19:30;;;;;;;14.20;10.73;;;;;;;18.72;100.00;100401.53;7402019;19;20403;-39
2023/06/19 07:22:00;;;;;;;15.33;10.90;;;;;;;18.67;100.00;100421.53;7373008;19;20805;-37
2023/06/19 07:24:32;;;;;;;15.97;11.17;;;;;;;18.94;100.00;100403.31;7398359;19;20419;-38
2023/06/19 07:27:02;;;;;;;15.33;11.70;;;;;;;19.09;100.00;100394.66;7372196;19;20459;-37
2023/06/19 07:29:32;;;;;;;14.60;11.17;;;;;;;19.07;100.00;100389.41;7401811;19;20881;-40
2023/06/19 07:32:04;;;;;;;16.40;10.70;;;;;;;18.96;100.00;100381.53;7374250;19;20498;-41
2023/06/19 07:34:34;;;;;;;24.30;15.80;;;;;;;18.97;100.00;100378.06;7398082;19;20412;-33
2023/06/19 07:37:03;;;;;;;24.13;17.20;;;;;;;18.98;100.00;100374.56;7372116;19;20475;-36
2023/06/19 07:39:35;;;;;;;17.70;11.67;;;;;;;18.92;100.00;100366.72;7399077;19;20396;-39
2023/06/19 07:42:06;;;;;;;17.87;12.93;;;;;;;18.87;100.00;100374.56;7372463;19;20510;-35
2023/06/19 07:44:36;;;;;;;18.10;12.70;;;;;;;18.97;100.00;100375.44;7396925;19;21076;-40
2023/06/19 07:47:06;;;;;;;16.37;13.00;;;;;;;19.07;100.00;100373.72;7371956;19;20455;-38
2023/06/19 07:49:35;;;;;;;16.00;11.80;;;;;;;19.12;100.00;100360.69;7398672;19;20403;-36
2023/06/19 07:52:06;;;;;;;14.00;10.80;;;;;;;18.99;100.00;100367.59;7373839;19;20427;-39
2023/06/19 07:54:39;;;;;;;16.10;12.40;;;;;;;19.06;100.00;100378.97;7397617;19;20438;-37
2023/06/19 07:57:09;;;;;;;18.27;12.70;;;;;;;19.06;100.00;100372.00;7374088;19;20466;-39
2023/06/19 07:59:38;;;;;;;13.90;10.80;;;;;;;19.10;100.00;100378.09;7397390;19;20961;-36
2023/06/19 08:02:08;;;;;;;16.77;12.00;;;;;;;19.21;100.00;100381.59;7372437;19;20869;-39
2023/06/19 08:04:38;;;;;;;15.17;11.60;;;;;;;19.30;100.00;100371.09;7397878;19;20431;-38
2023/06/19 08:07:08;;;;;;;19.27;12.97;;;;;;;19.30;100.00;100375.47;7372029;19;20467;-35
2023/06/19 08:09:41;;;;;;;14.90;11.63;;;;;;;19.44;100.00;100378.09;7398252;19;20420;-35
2023/06/19 08:12:10;;;;;;;16.50;12.43;;;;;;;19.52;100.00;100365.00;7373478;19;20431;-38
2023/06/19 08:14:40;;;;;;;18.17;13.47;;;;;;;19.69;100.00;100364.97;7395980;19;20431;-42
2023/06/19 08:17:10;;;;;;;17.73;11.97;;;;;;;19.87;100.00;100356.19;7371182;19;20496;-38
2023/06/19 08:19:39;;;;;;;13.23;10.70;;;;;;;19.96;100.00;100344.88;7397690;19;20412;-37
2023/06/19 08:22:09;;;;;;;15.73;11.00;;;;;;;19.96;100.00;100340.47;7372939;19;20888;-42
2023/06/19 08:24:41;;;;;;;21.70;12.93;;;;;;;20.01;100.00;100330.00;7396773;19;20419;-35
2023/06/19 08:27:11;;;;;;;14.37;11.90;;;;;;;20.12;100.00;100332.56;7368704;19;21030;-42
2023/06/19 08:29:40;;;;;;;15.50;11.27;;;;;;;20.29;100.00;100321.13;7396985;19;20487;-37
2023/06/19 08:32:10;;;;;;;13.80;10.30;;;;;;;20.62;100.00;100309.56;7371243;19;20459;-41
2023/06/19 08:34:41;;;;;;;18.50;11.23;;;;;;;20.77;100.00;100286.78;7396896;19;20939;-38
2023/06/19 08:37:11;;;;;;;14.13;11.87;;;;;;;20.69;100.00;100283.31;7370813;19;20451;-43
2023/06/19 08:39:43;;;;;;;14.13;10.97;;;;;;;20.66;100.00;100283.34;7396661;19;20407;-36
2023/06/19 08:42:13;;;;;;;16.03;11.00;;;;;;;20.57;100.00;100285.19;7372410;19;20459;-36
2023/06/19 08:44:43;;;;;;;15.33;11.57;;;;;;;20.87;100.00;100277.13;7396522;19;20424;-39
2023/06/19 08:47:12;;;;;;;15.97;11.10;;;;;;;21.15;100.00;100262.00;7371309;19;20526;-34
2023/06/19 08:49:42;;;;;;;14.83;11.40;;;;;;;21.44;100.00;100255.53;7397010;19;20498;-41
2023/06/19 08:52:12;;;;;;;16.50;11.77;;;;;;;21.68;100.00;100243.03;7372103;19;20423;-43
2023/06/19 08:54:46;;;;;;;16.30;11.93;;;;;;;21.84;100.00;100227.97;7395945;19;21287;-43
2023/06/19 08:57:15;;;;;;;15.57;11.83;;;;;;;22.09;100.00;100224.13;7368520;19;21042;-40
2023/06/19 08:59:50;;;;;;;18.53;12.57;;;;;;;21.84;100.00;100232.38;7397435;19;20411;-39
2023/06/19 09:02:20;;;;;;;14.07;11.10;;;;;;;21.89;100.00;100238.41;7371843;19;20823;-37
2023/06/19 09:04:50;;;;;;;16.07;11.90;;;;;;;21.96;100.00;100237.44;7395513;19;20399;-38
2023/06/19 09:07:20;;;;;;;21.37;11.63;;;;;;;22.02;100.00;100243.50;7367923;19;20462;-38
2023/06/19 09:09:52;;;;;;;14.63;11.40;;;;;;;22.14;100.00;100243.31;7394821;19;20760;-35
2023/06/19 09:12:25;;;;;;;16.40;11.33;;;;;;;;;;7369625;19;20426;-36
2023/06/19 09:14:55;;;;;;;17.47;10.83;;;;;;;22.34;100.00;100244.78;7395461;19;20404;-40
2023/06/19 09:17:26;;;;;;;15.87;12.23;;;;;;;22.46;100.00;100249.00;7369662;19;20468;-41
2023/06/19 09:19:57;;;;;;;19.30;12.17;;;;;;;22.55;100.00;100246.22;7395236;19;20419;-38
2023/06/19 09:22:29;;;;;;;17.30;12.90;;;;;;;22.65;100.00;100254.81;7371460;19;20781;-37
2023/06/19 09:25:06;;;;;;;21.87;13.53;;;;;;;22.87;100.00;100252.69;7394354;19;20399;-36
2023/06/19 09:27:38;;;;;;;22.30;14.77;;;;;;;23.00;100.00;100258.63;7369644;19;20459;-38
2023/06/19 09:30:08;;;;;;;15.50;12.00;;;;;;;23.14;100.00;100268.03;7394927;19;20415;-37
2023/06/19 09:32:38;;;;;;;16.20;12.33;;;;;;;23.16;100.00;100261.84;7373663;19;20455;-36
2023/06/19 09:35:08;;;;;;;17.70;11.47;;;;;;;23.13;100.00;100254.00;7394169;19;20407;-36
2023/06/19 09:37:41;;;;;;;13.13;11.03;;;;;;;23.48;100.00;100264.78;7371001;19;20455;-38
2023/06/19 09:40:13;;;;;;;14.77;10.93;;;;;;;23.55;100.00;100279.56;7394484;19;20792;-43
2023/06/19 09:42:45;;;;;;;22.80;11.97;;;;;;;23.71;100.00;100273.97;7372640;19;20555;-37
2023/06/19 09:45:17;;;;;;;78.67;31.57;;;;;;;23.89;100.00;100279.78;7373124;19;20412;-38
2023/06/19 09:47:49;;;;;;;16.43;11.57;;;;;;;23.95;100.00;100293.66;7393767;19;20465;-37
2023/06/19 09:50:19;;;;;;;16.60;12.70;;;;;;;24.32;100.00;100294.66;7372845;19;20942;-40
2023/06/19 09:52:51;;;;;;;23.03;13.57;;;;;;;24.24;100.00;100301.84;7391341;19;20922;-36
2023/06/19 09:55:29;;;;;;;14.10;10.03;;;;;;;24.11;100.00;100367.16;7370235;19;20432;-37
2023/06/19 09:57:58;;;;;;;17.37;11.90;;;;;;;24.06;100.00;100343.50;7393200;19;20529;-40
2023/06/19 10:00:31;;;;;;;15.77;11.73;;;;;;;24.20;100.00;100334.47;7369135;19;21015;-34
2023/06/19 10:03:02;;;;;;;16.00;11.17;;;;;;;24.29;100.00;100342.16;7392572;19;20441;-34
2023/06/19 10:05:32;;;;;;;15.10;10.60;;;;;;;24.16;100.00;100348.59;7369408;19;20415;-43
2023/06/19 10:08:04;;;;;;;13.57;10.37;;;;;;;24.24;100.00;100373.88;7392152;19;20408;-43
2023/06/19 10:10:37;;;;;;;12.50;10.07;;;;;;;23.88;100.00;100386.88;7371396;19;20384;-43
2023/06/19 10:13:15;;;;;;;14.97;10.60;;;;;;;24.19;100.00;100377.53;7392802;19;20805;-39
2023/06/19 10:15:47;;;;;;;14.70;10.13;;;;;;;24.33;100.00;100382.50;7370039;19;20419;-34
2023/06/19 10:18:18;;;;;;;18.90;11.47;;;;;;;24.34;100.00;100387.72;7392123;19;20749;-41
2023/06/19 10:20:48;;;;;;;20.10;11.43;;;;;;;24.50;100.00;100401.44;7371301;19;20434;-37
2023/06/19 10:23:20;;;;;;;17.10;11.37;;;;;;;24.78;100.00;100394.69;7394305;19;20411;-37
2023/06/19 10:25:59;;;;;;;15.90;11.53;;;;;;;25.05;100.00;100416.94;7367239;19;20427;-39
2023/06/19 10:28:33;;;;;;;20.07;12.80;;;;;;;24.80;100.00;100432.44;7392989;19;20408;-38
2023/06/19 10:31:04;;;;;;;16.60;12.57;;;;;;;24.62;100.00;100396.81;7368177;19;20427;-37
2023/06/19 10:33:40;;;;;;;16.90;11.90;;;;;;;24.59;100.00;100388.94;7395190;19;20414;-37
2023/06/19 10:36:17;;;;;;;15.40;11.67;;;;;;;24.60;100.00;100402.09;7367280;19;20460;-43
2023/06/19 10:38:47;;;;;;;21.50;13.47;;;;;;;25.26;100.00;100392.69;7394239;19;20419;-38
2023/06/19 10:41:21;;;;;;;23.73;14.90;;;;;;;25.02;100.00;100421.44;7367813;19;20435;-37
2023/06/19 10:43:56;;;;;;;15.73;11.57;;;;;;;25.45;100.00;100408.91;7387741;19;20494;-39
2023/06/19 10:46:27;;;;;;;16.43;11.80;;;;;;;25.51;100.00;100426.38;7364246;19;20451;-41
2023/06/19 10:49:00;;;;;;;18.87;12.90;;;;;;;25.52;100.00;100441.31;7390509;19;20399;-38
2023/06/19 10:51:31;;;;;;;15.80;11.93;;;;;;;25.37;100.00;100430.22;7364712;19;20863;-43
2023/06/19 10:54:00;;;;;;;18.17;12.30;;;;;;;25.77;100.00;100432.78;7390232;19;20487;-38
2023/06/19 10:56:33;;;;;;;18.70;13.20;;;;;;;25.73;100.00;100464.56;7365917;19;20560;-39
2023/06/19 10:59:04;;;;;;;15.40;12.60;;;;;;;25.47;100.00;100426.47;7392410;19;20391;-37
2023/06/19 11:01:38;;;;;;;15.73;12.07;;;;;;;24.91;100.00;100432.25;7366278;19;20427;-35
2023/06/19 11:04:09;;;;;;;18.97;12.60;;;;;;;25.01;100.00;100406.50;7390068;19;20951;-41
2023/06/19 11:06:39;;;;;;;15.37;12.63;;;;;;;25.15;100.00;100404.38;7361905;19;20447;-36
2023/06/19 11:09:10;;;;;;;21.47;15.73;;;;;;;25.27;100.00;100408.47;7391895;19;20428;-37
2023/06/19 11:11:45;;;;;;;32.53;19.77;;;;;;;25.29;100.00;100432.22;7367239;19;20429;-40
2023/06/19 11:14:16;;;;;;;33.13;19.00;;;;;;;25.62;100.00;100434.91;7393325;19;20399;-36
2023/06/19 11:16:47;;;;;;;28.23;19.57;;;;;;;25.78;100.00;100450.38;7365282;19;20470;-39
2023/06/19 11:19:20;;;;;;;72.27;41.13;;;;;;;26.06;100.00;100433.75;7391601;19;20775;-39
2023/06/19 11:21:51;;;;;;;26.27;18.43;;;;;;;25.99;100.00;100455.06;7367880;19;20431;-39